22ème Rallye Terre des Causses
Championnat de France des Rallyes sur Terre
1 1 CUOQ Jean-Marie/GRANDEMANGE Marielle Citroën C4 WRC FA 8W 10:58,7 114km/h 1
2 3 MAURIN Julien/URAL Olivier Citroën DS3 WRC A 8W 11:04,6 +00:05,9 +00:05,9 1
3 2 BAUD Lionel/CRAEN Fabien Ford Focus WRC A 8W 11:17,9 +00:19,2 +00:13,3 1
4 4 DURBEC Thibault/RENUCCI Jacques-Julien Citroën DS3 WRC A 8W 11:21,8 +00:23,1 +00:03,9 1
5 14 FALCO Jean-Marc/BOUERI Jonathan Peugeot 208 T16 R 5 11:27,8 +00:29,1 +00:06,0 1
6 11 GILBERT Quentin/JAMOUL Renaud Skoda Fabia R5 R 5 11:28,4 +00:29,7 +00:00,6
7 8 RAOUX Jean-Michel/MAGAT Laurent Citroën DS3 WRC A 8W 11:29,2 +00:30,5 +00:00,8 1
8 18 PONS Xavier/ORIOL Julia Peugeot 208 T16 R 5 11:34,5 +00:35,8 +00:05,3
9 12 BERFA Jordan/AUGUSTIN Damien HUYNDAI i20 R5 R 5 11:36,7 +00:38,0 +00:02,2 1
10 16 PETIT Jean-Eric/MAURIN Mathieu Ford Fiesta R5 R 5 11:48,0 +00:49,3 +00:11,3 1
11 9 FERAUD Cyrille/DUCHEMIN Aymeric Citroën C4 WRC FA 8W 11:50,7 +00:52,0 +00:02,7 1
12 5 CHAYNES Gary/TRIBOUT Christian Citroën C4 WRC FA 8W 11:54,4 +00:55,7 +00:03,7 1
13 7 CLOT Charles/LEON Thierry Ford Fiesta WRC A 8W 12:00,0 +01:01,3 +00:05,6 1
14 19 MORDACQ Arnaud/RATIER Marie-Noelle Mitsubishi Lancer Evo9 N 4 12:02,5 +01:03,8 +00:02,5 1
15 6 ROUSSET Eric/GOSSET Jean-David Citroën Xsara WRC FA 8W 12:09,5 +01:10,8 +00:07,0
16 40 MARTI Christian/LAVIALE Jean-Marc Mitsubishi Lancer Evo9 N 4 12:10,4 +01:11,7 +00:00,9 1
17 17 FRAU Richard/GASTINEL Jean-Francois Ford Fiesta R5 R 5 12:17,0 +01:18,3 +00:06,6 1
18 35 MORDACQ Laurent/MORTIER Hervé Mitsubishi Lancer Evo9 R 4 12:17,2 +01:18,5 +00:00,2 1
19 59 RIBAUD Quentin/BALME Benoît Peugeot 208 VTI R 2 12:19,5 +01:20,8 +00:02,3 1 2 3
20 54 PELLIER Laurent/NEYRET-GIGOT Benoît Peugeot 208 VTI R 2 12:20,3 +01:21,6 +00:00,8 3
21 15 BESSON Jean-Pascal/ROISSAC Patrice Skoda Fabia R5 R 5 12:22,3 +01:23,6 +00:02,0 1
22 57 LLARENA Efren/FERNANDEZ Sara Peugeot 208 VTI R 2 12:24,7 +01:26,0 +00:02,4 3
23 20 GAIDOZ Hervé/RICHARD François Subaru Impreza WRX FA 8 12:28,1 +01:29,4 +00:03,4 1
24 62 SAHILA Aki/SUORSA Rami Peugeot 208 VTI R 2 12:28,3 +01:29,6 +00:00,2 3
25 50 VEYRARD Didier/TARDY Vincent Subaru Impreza STI FN 4 12:28,7 +01:30,0 +00:00,4
26 37 DESANGLES Yanis/THERON Nicolas Subaru Impreza WRX R 4 12:28,7 +01:30,0
27 61 GAGO Diogo/DEL BARRIO GARCIA Rodolfo Peugeot 208 VTI R 2 12:29,4 +01:30,7 +00:00,7 3
28 76 COLNEY Thierry/FORTMANN Patrick Citroën DS3 R3 R 3 12:29,9 +01:31,2 +00:00,5 1 2
29 10 "PIANO"/COTTU Paolo Subaru Impreza WRC FA 8W 12:31,4 +01:32,7 +00:01,5
30 60 LARIO Taisko/RYYNANEN Sami Peugeot 208 VTI R 2 12:31,9 +01:33,2 +00:00,5 3
31 36 SALIN Daniel/SALIN Brigitte Subaru Impreza WRX R 4 12:35,9 +01:37,2 +00:04,0
32 30 CHIAVARO Daniel/DUPANLOUP Alexandra Subaru Impreza Sti FA 8 12:37,9 +01:39,2 +00:02,0
33 64 HAIGH-SMITH Ashley/BURNS Niall Peugeot 208 VTI R 2 12:38,2 +01:39,5 +00:00,3 3
34 21 GIRAUD Emmanuel/GIRAUD Grégory Mitsubishi Lancer Evo8 FA 8 12:40,4 +01:41,7 +00:02,2
35 72 TAVENEAU Sam/POINT Clément Peugeot 208 VTI R 2 12:40,5 +01:41,8 +00:00,1 3
36 63 WAGEMANS Joachim/DU PAN Anton Peugeot 208 VTI R 2 12:42,1 +01:43,4 +00:01,6 3
37 42 CONDAMINES Florian/DELMAS Cyril Subaru Impreza N 4 12:43,4 +01:44,7 +00:01,3
38 52 JULIA David/AUBERTIN Ludovic Peugeot 206 Rc F2 14 12:44,3 +01:45,6 +00:00,9 1 2
39 65 BOSCH Florentin/LAZZARINI Jean-Paul Peugeot 208 VTI R 2 12:46,6 +01:47,9 +00:02,3 3
40 116 RAYNAUD Gabriel/JULIEN William Seat Ibiza GTI F2 14 12:47,3 +01:48,6 +00:00,7 1 2
41 70 PINHEIRO Karl-Alexandre/LE FLOCH Franck Peugeot 208 VTI R 2 12:48,1 +01:49,4 +00:00,8 3
42 39 BENIER Thomas/PRASSE Cédric Subaru Impreza WRX N 4 12:50,0 +01:51,3 +00:01,9 1
43 66 MAISANO Brandon/PEBEYRE Pierre Peugeot 208 VTI R 2 12:50,1 +01:51,4 +00:00,1 3
44 44 GUIGNARD Eric/MEFFRE Didier Subaru Impreza N 4 12:53,1 +01:54,4 +00:03,0
45 81 VIALLE Lilian/GHIRARDELLO Manuel Renault Clio R3 R 3 12:56,9 +01:58,2 +00:03,8 1 2
46 68 CUFFI Tommaso/BOSI Massimiliano Peugeot 208 VTI R 2 13:02,6 +02:03,9 +00:05,7 3
47 43 PUEL Gérard/PUEL Caroline Mitsubishi Lancer Evo8 FN 4 13:03,2 +02:04,5 +00:00,6
48 46 LOPEZ Yannick/LOPEZ Brice Subaru Impreza WRX N 4 13:03,2 +02:04,5
49 71 RAMBAUD Sébastien/RICOU Brice Peugeot 208 VTI R 2 13:05,3 +02:06,6 +00:02,1 3
50 80 GUINCHARD Emmanuel/CHATELAIN Mickaël Peugeot 207 Rc R 3 13:13,0 +02:14,3 +00:07,7
51 87 SALGUES Gilles/MOUYSSET Jérôme Citroën Saxo T4 FA 6K 13:16,1 +02:17,4 +00:03,1
52 53 VITAL Jean-Pierre/DECOUZON Pierre Citroën Saxo VTS F2 13 13:16,2 +02:17,5 +00:00,1 1 2
53 83 MARCHAL Eddy/JOLE Damien Citroën Saxo T4 FA 6K 13:17,4 +02:18,7 +00:01,2 1
54 113 BLANCK Lionel/BLANCK Arnaud Peugeot 206 Rc F2 14 13:19,3 +02:20,6 +00:01,9
55 94 JOUINES Jean/CHABBERT Martin Opel Adam Rally R FR2 13:19,6 +02:20,9 +00:00,3
56 47 CAMPAGNOLI Gabriele/ARENA Nicola Subaru Impreza WRX N 4 13:24,3 +02:25,6 +00:04,7
57 95 GOUY Quentin/THILLIEZ Quentin Citroën C2 R2 R 2 13:26,2 +02:27,5 +00:01,9
58 98 DEFANTE Romain/TEMPIER Romain Ford Fiesta R2 R 2 13:27,8 +02:29,1 +00:01,6
59 78 BOUCHET Guillaume/BLAMPEY Fabien Peugeot 207 Rc R 3 13:28,5 +02:29,8 +00:00,7
60 48 PRIOLO Laurent/DALMAS Yannick Mitsubishi Lancer Evo9 N 4 13:33,2 +02:34,5 +00:04,7
61 114 BOUZID Lilian/VERGNES Antony Peugeot 306 S16 F2 14 13:36,4 +02:37,7 +00:03,2
62 99 FOTIA Anthony/MILLET Kévin Ford Fiesta R2 R 2 13:37,1 +02:38,4 +00:00,7
63 97 MARGAILLAN Hugo/POUJOL Sébastien Ford Fiesta R2 R 2 13:37,8 +02:39,1 +00:00,7
64 96 PUVERIC Gilles/LE BORGNE Didier Peugeot 208 VTI R 2 13:38,5 +02:39,8 +00:00,7
65 90 COLOMBE Geoffroy/FABREGUE Régis Peugeot 206 XS FA 6K 13:39,5 +02:40,8 +00:01,0
66 132 SABATIER Florent/SANTIAGO Thomas Peugeot 106 S16 FA 6 13:41,1 +02:42,4 +00:01,6 1 2
67 91 BERTON Charlotte/TAILLANDIER Thomas Citroën Saxo T4 FA 6K 13:41,3 +02:42,6 +00:00,2
68 67 JAMET Jérémy/SECACHE Michaël Peugeot 208 VTI R 2 13:42,3 +02:43,6 +00:01,0 3
69 77 DAZY Jean-Pierre/LOIZEAUX Didier Renault Clio R3 R 3 13:44,0 +02:45,3 +00:01,7 1 2
70 38 MOREL Jean-Luc/GIDEL Philippe Subaru Impreza WRX FN 4 13:46,2 +02:47,5 +00:02,2
71 125 BELLIARDO Daniel/BRAQUET Jean-Baptiste Peugeot 306 S16 FN 3 13:47,0 +02:48,3 +00:00,8
72 45 ECK Jean-Luc/ECK Aurélien Subaru Impreza N 4 13:48,1 +02:49,4 +00:01,1
73 86 MARCOBAL Thierry/MARCOBAL-BASTIDE Cantin Citroën Saxo T4 FA 6K 13:52,5 +02:53,8 +00:04,4
74 22 LOPEZ Etienne/MERCIER Marjorie Subaru Impreza WRX FA 8 13:58,2 +02:59,5 +00:05,7
75 117 ROUCOULY Mathieu/GILHODES Jean-Louis Peugeot 309 GTI 16S F2 14 14:05,6 +03:06,9 +00:07,4
76 135 RAMEL Olivier/BODENMANN Jacques-Victor Peugeot 106 GT FA 6 14:07,9 +03:09,2 +00:02,3
77 123 BALMONET/MONICO Celia Peugeot 309 GTI F2 14 14:09,7 +03:11,0 +00:01,8
78 126 VANTILLARD Jean-Marc/DARRAS Pascaline Peugeot 206 Rc FN 3 14:11,0 +03:12,3 +00:01,3
79 88 QUARROZ Damien/VOLPI Cécile Citroën Saxo T4 FA 6K 14:11,9 +03:13,2 +00:00,9
80 134 RALITE Christophe/ABBAL Marie Peugeot 106 S16 FA 6 14:21,0 +03:22,3 +00:09,1
81 104 FRELAUT Yohann/CASSAGNADE Pascal Peugeot 206 Rc FA 7 14:21,8 +03:23,1 +00:00,8
82 127 LESCURE Philippe/ESCAICH Bertrand Peugeot 306 S16 FN 3 14:22,9 +03:24,2 +00:01,1
83 145 BRISSON Eddy/MASSON Pascal Suzuki Swift FN 2 14:25,2 +03:26,5 +00:02,3
84 92 BRENIAUX Sébastien/JACQUES Anthony Peugeot 206 XS FA 6K 14:30,6 +03:31,9 +00:05,4
85 148 LATIEZE Yvan/GOUY Cindy Peugeot 106 S16 FN 2 14:31,3 +03:32,6 +00:00,7
86 106 GELLUSSEAU Luc/DEJOUX Charly Peugeot 306 S16 FA 7 14:34,7 +03:36,0 +00:03,4
87 118 SANHES Yves/SANHES Christine B.M.W. 318i Compact F2 14 14:35,2 +03:36,5 +00:00,5
88 133 CHOQUER Mickaël/GROULIER Vincent Peugeot 206 XS FA 6 14:36,9 +03:38,2 +00:01,7
89 112 REGORD Hervé/REGORD Camille Peugeot 205 GTI F2 14 14:42,5 +03:43,8 +00:05,6 1 2
90 136 FOURNIER Nicolas/VATTEAU Kévin Peugeot 206 XS F2 13 14:45,9 +03:47,2 +00:03,4
91 153 CEUGNET Sébastien/LUCON Pascal Peugeot 106 XSI FN 1 14:49,3 +03:50,6 +00:03,4
92 146 DOLGOPYATOFF Damien/FRANCOIS Solene Suzuki Swift FN 2 14:59,2 +04:00,5 +00:09,9
93 150 VAILLE Mickaël/SAVA-LOPEZ Sabrina Peugeot 205 GTI FN 2 14:59,8 +04:01,1 +00:00,6
94 139 GELY Michel/VALENTIN Cédric Peugeot 206 XS F2 13 15:00,7 +04:02,0 +00:00,9
95 140 VAYSSE Adrien/LAURENS Clément Peugeot 106 S16 F2 13 15:04,6 +04:05,9 +00:03,9
96 119 MOULIN François/BONNET Dorine Renault Clio RS F2 14 15:08,5 +04:09,8 +00:03,9
97 120 RIEU Vincent/DEIXONNE Charles Renault Clio Ragnotti F2 14 15:10,3 +04:11,6 +00:01,8
98 144 TODESCHINI Florent/PORCHERON Giovanni Dacia Logan F2 13 15:14,2 +04:15,5 +00:03,9
99 122 VIDAL Marc/MONTARON Loïc Peugeot 309 GTI F2 14 15:24,2 +04:25,5 +00:10,0
100 152 VUITTENEZ Victorien/COTE COLISSON Maxime Peugeot 106 XSI FN 1 15:25,6 +04:26,9 +00:01,4
101 142 BRENGUES Jean-Marie/BRENGUES Mélanie Peugeot 205 GTI F2 13 15:26,3 +04:27,6 +00:00,7
102 108 GUILLON Jean-Luc/GUILLON Thibault Peugeot 206 GT FA 7 15:29,0 +04:30,3 +00:02,7
103 26 GLEY Jean-Pierre/AUBANEL Aurélien B.M.W. 325 iX FA 8 15:34,4 +04:35,7 +00:05,4
104 110 CLEMENT Frédéric/COSTES François Peugeot 206 GT F2 14 15:35,9 +04:37,2 +00:01,5 1 2
105 151 ROCHE Ivan/GREVOT Florian Peugeot 106 XSI F2 12 15:40,3 +04:41,6 +00:04,4 1 2
106 89 CREPIN Maude/FRANCOIS Léa Citroën Saxo T4 FA 6K 15:41,4 +04:42,7 +00:01,1
107 147 DI PAOLO Alain/MORILLON Frederika Peugeot 106 S16 FN 2 16:13,5 +05:14,8 +00:32,1
108 137 RAKOTOMALALA Andry/GORGET Chloé Peugeot 106 S16 F2 13 16:15,6 +05:16,9 +00:02,1
109 154 BES Yves/LE PICHON Christelle Peugeot 106 XR F2 11 17:07,1 +06:08,4 +00:51,5
110 141 PICARD Erick/PONTILLE Hervé Dacia Logan F2 13 17:43,3 +06:44,6 +00:36,2
111 155 SOUBIROUX Vincent/VIGUIE Florian Renault Clio F2 11 17:55,9 +06:57,2 +00:12,6
112 105 GAUTHIER Bernard/BLANQUET Muriel Peugeot 306 S16 FA 7 18:59,8 +08:01,1 +01:03,9
Clt Equipage Voiture Gr/Cl Temps Ecart 1er Ecart préc. Catégories
Commentaires: © PatricK Soft  
(Temps forfaitaires=couleur bleue)
Classés:112

Epreuve: Groupe: Catégorie:

 
Retour
Classement ES10-La Brunie - Trigovie (21.000 km)